NCAR-RAP Real-Time Weather Data

Output produced by METARs form (12 August 2020  18:12 UTC)
found at http://weather.rap.ucar.edu/surface/
 
KMLI 121752Z 15011KT 10SM CLR 27/17 A3008 RMK AO2 SLP183 T02720172 10278 20161 52001
KMLI 121652Z 12009KT 10SM CLR 27/19 A3008 RMK AO2 SLP183 T02670189
KMLI 121552Z 16009KT 10SM CLR 26/19 A3008 RMK AO2 SLP182 T02610189
KMLI 121452Z 14006KT 10SM CLR 24/18 A3008 RMK AO2 SLP182 T02440183 58002
KMLI 121352Z 12004KT 10SM CLR 23/17 A3009 RMK AO2 SLP187 T02280167
KMLI 121252Z 10SM CLR 19/16 A3009 RMK AO2 SLP187 T01940161 $
KMLI 121152Z 11004KT 10SM CLR 16/14 A3009 RMK AO2 SLP185 T01610144 10172 20144 50008 $
KMLI 121052Z 12003KT 9SM CLR 15/14 A3009 RMK AO2 SLP185 T01500139 $
KMLI 120952Z AUTO 00000KT 10SM CLR 16/14 A3008 RMK AO2 SLP183 T01560139 TSNO $
KMLI 120852Z AUTO 00000KT 10SM CLR 16/14 A3006 RMK AO2 SLP177 T01560139 51010
KMLI 120752Z AUTO 16004KT 10SM CLR 15/14 A3005 RMK AO2 SLP172 T01500139
KMLI 120652Z AUTO 00000KT 10SM CLR 16/14 A3005 RMK AO2 SLP171 T01610144
KMLI 120552Z AUTO 00000KT 10SM CLR 17/16 A3003 RMK AO2 SLP166 T01670156 10250 20167 53002
KMLI 120452Z AUTO 00000KT 10SM CLR 17/16 A3003 RMK AO2 SLP165 T01720156
KMLI 120352Z 00000KT 10SM CLR 18/17 A3002 RMK AO2 SLPNO T01830172
KMLI 120252Z 00000KT 10SM CLR 20/18 A3002 RMK AO2 SLPNO T02000178 53005
KMLI 120152Z 00000KT 10SM CLR 21/18 A3001 RMK AO2 SLPNO T02110178
KMLI 120052Z 15004KT 10SM CLR 23/19 A3000 RMK AO2 SLPNO T02280189
KMLI 112352Z 16004KT 10SM CLR 25/19 A3001 RMK AO2 SLPNO T02500189 10289 20250 50001
KMLI 112252Z AUTO 12004KT 10SM CLR 27/16 A3001 RMK A02 SLPNO T02670156
KMLI 112152Z AUTO VRB03KT 10SM CLR 28/14 A3001 RMK A02 SLPNO T02830144